Thursday, October 23, 2014
13:11 UTC
  |  Log In   |  Register Free
Airport Search:

Coleman Municipal Airport
(KCOM)

Coleman Municipal Airport Diagram
No Airport Diagram Available

FAA data valid effective September 18, 2014 - November 13, 2014 (unless otherwise noted).

 
 
 
 
 
 
 
 
 
 
 
 
 
 

Current Aviation Weather for Coleman Municipal Airport (KCOM)

The most recent METAR observation for KCOM was updated at: 1308
METAR Summary (Translated METAR)
KCOM
231255Z AUTO 00000KT 10SM CLR 16/15 A3013 RMK AO2 T01580150
KBWD
231235Z AUTO 00000KT 10SM SCT030 SCT038 BKN044 17/15 A3013 RMK AO2
(23 nm SE from KCOM)
KABI
231252Z 17006KT 10SM BKN044 16/13 A3013 RMK AO2 SLP186 T01560128
(37 nm NW from KCOM)
TAF Summary (Translated TAF)
KABI
(37 nm NW from KCOM)
231120Z 2312/2412 17005KT P6SM OVC045 FM231400 18006KT P6SM SKC
  Airport Weather Conditions for KCOM

 Current Weather at COM
62° F
Overcast
North winds at 0.0 mph
COM NOAA Radar

Pressure: 30.13 in
Humidity: 90%
Wind: Calm
Dew Point: 59.2°F
Visibility: 10.00 mi


Airport Weather Forecast for KCOM

Translated METAR and TAF for KCOM
Translated METAR for KCOM (1306 UTC 23 October 2014)
found at http://aviationweather.gov/adds/metars/
 
METAR text: KCOM 231255Z AUTO 00000KT 10SM CLR 16/15 A3013 RMK AO2 T01580150
Conditions at: KCOM (COLEMAN MUNI , TX, US) observed 1255 UTC 23 October 2014
Temperature: 15.8°C (60°F)
Dewpoint: 15.0°C (59°F) [RH = 95%]
Pressure (altimeter): 30.13 inches Hg (1020.4 mb)
Winds: calm
Visibility: 10 or more miles (16+ km)
Ceiling: at least 12,000 feet AGL
Clouds: sky clear below 12,000 feet AGL
Weather: automated observation with no human augmentation;
there may or may not be significant weather present at this time
Translated TAF for KCOM

There is no translated TAF available for this airport

Find All Airport Services Find A Hotel Find A Rental Car Find A Golf Course Find A Restaurant $100 Hamburger



FBO's on the Field
FBO Company Facility Photos Services Transportation Aviation Fuel Prices: Prices include tax
Catering Weather Repair Courtesy Rental Type 100LL JetA JetA+ MOGAS 8087
 
Add another FBO Facility Photos Catering Weather Repair Courtesy Rental Type 100LL JetA JetA+ MOGAS 8087
Services Transportation Aviation Fuel Prices: Prices include tax
There are no FBO's currently reporting fuel at COM. List your FBO now


model-print
model-print
model-print
model-print